sensor_id;sensor_type;location;lat;lon;timestamp;temperature;humidity
9544;DHT22;30418;51.45933468;7.33152330;2023-07-28T00:01:45;20.40;79.30
9544;DHT22;30418;51.45933468;7.33152330;2023-07-28T00:04:14;20.40;79.30
9544;DHT22;30418;51.45933468;7.33152330;2023-07-28T00:06:42;20.40;79.40
9544;DHT22;30418;51.45933468;7.33152330;2023-07-28T00:09:11;20.40;79.30
9544;DHT22;30418;51.45933468;7.33152330;2023-07-28T00:11:40;20.40;79.30
9544;DHT22;30418;51.45933468;7.33152330;2023-07-28T00:14:10;20.40;79.40
9544;DHT22;30418;51.45933468;7.33152330;2023-07-28T00:16:39;20.40;79.40
9544;DHT22;30418;51.45933468;7.33152330;2023-07-28T00:19:08;20.40;79.30
9544;DHT22;30418;51.45933468;7.33152330;2023-07-28T00:21:36;20.40;79.30
9544;DHT22;30418;51.45933468;7.33152330;2023-07-28T00:24:05;20.40;79.30
9544;DHT22;30418;51.45933468;7.33152330;2023-07-28T00:26:33;20.40;79.30
9544;DHT22;30418;51.45933468;7.33152330;2023-07-28T00:29:02;20.40;79.30
9544;DHT22;30418;51.45933468;7.33152330;2023-07-28T00:31:36;20.40;79.40
9544;DHT22;30418;51.45933468;7.33152330;2023-07-28T00:34:05;20.40;79.40
9544;DHT22;30418;51.45933468;7.33152330;2023-07-28T00:36:33;20.40;79.30
9544;DHT22;30418;51.45933468;7.33152330;2023-07-28T00:39:02;20.40;79.40
9544;DHT22;30418;51.45933468;7.33152330;2023-07-28T00:41:32;20.40;79.40
9544;DHT22;30418;51.45933468;7.33152330;2023-07-28T00:44:01;20.40;79.30
9544;DHT22;30418;51.45933468;7.33152330;2023-07-28T00:46:29;20.40;79.30
9544;DHT22;30418;51.45933468;7.33152330;2023-07-28T00:49:00;20.40;79.40
9544;DHT22;30418;51.45933468;7.33152330;2023-07-28T00:51:31;20.40;79.50
9544;DHT22;30418;51.45933468;7.33152330;2023-07-28T00:54:00;20.40;79.50
9544;DHT22;30418;51.45933468;7.33152330;2023-07-28T00:56:31;20.40;79.50
9544;DHT22;30418;51.45933468;7.33152330;2023-07-28T00:59:01;20.40;79.50
9544;DHT22;30418;51.45933468;7.33152330;2023-07-28T01:01:29;20.40;79.50
9544;DHT22;30418;51.45933468;7.33152330;2023-07-28T01:03:59;20.40;79.50
9544;DHT22;30418;51.45933468;7.33152330;2023-07-28T01:06:37;20.40;79.60
9544;DHT22;30418;51.45933468;7.33152330;2023-07-28T01:09:12;20.40;79.80
9544;DHT22;30418;51.45933468;7.33152330;2023-07-28T01:11:53;20.40;79.70
9544;DHT22;30418;51.45933468;7.33152330;2023-07-28T01:14:23;20.40;79.90
9544;DHT22;30418;51.45933468;7.33152330;2023-07-28T01:16:52;20.40;79.70
9544;DHT22;30418;51.45933468;7.33152330;2023-07-28T01:19:23;20.40;79.70
9544;DHT22;30418;51.45933468;7.33152330;2023-07-28T01:21:57;20.40;80.60
9544;DHT22;30418;51.45933468;7.33152330;2023-07-28T01:24:40;20.40;79.80
9544;DHT22;30418;51.45933468;7.33152330;2023-07-28T01:27:13;20.40;80.00
9544;DHT22;30418;51.45933468;7.33152330;2023-07-28T01:29:42;20.40;79.80
9544;DHT22;30418;51.45933468;7.33152330;2023-07-28T01:32:12;20.40;79.70
9544;DHT22;30418;51.45933468;7.33152330;2023-07-28T01:34:40;20.40;79.80
9544;DHT22;30418;51.45933468;7.33152330;2023-07-28T01:37:09;20.40;79.80
9544;DHT22;30418;51.45933468;7.33152330;2023-07-28T01:39:38;20.40;79.70
9544;DHT22;30418;51.45933468;7.33152330;2023-07-28T01:42:06;20.40;79.80
9544;DHT22;30418;51.45933468;7.33152330;2023-07-28T01:44:36;20.40;79.80
9544;DHT22;30418;51.45933468;7.33152330;2023-07-28T01:47:05;20.40;79.90
9544;DHT22;30418;51.45933468;7.33152330;2023-07-28T01:49:34;20.40;79.90
9544;DHT22;30418;51.45933468;7.33152330;2023-07-28T01:52:03;20.30;79.80
9544;DHT22;30418;51.45933468;7.33152330;2023-07-28T01:54:32;20.40;80.00
9544;DHT22;30418;51.45933468;7.33152330;2023-07-28T01:57:00;20.40;79.90
9544;DHT22;30418;51.45933468;7.33152330;2023-07-28T01:59:29;20.40;80.00
9544;DHT22;30418;51.45933468;7.33152330;2023-07-28T02:01:58;20.40;80.00
9544;DHT22;30418;51.45933468;7.33152330;2023-07-28T02:04:27;20.40;80.10
9544;DHT22;30418;51.45933468;7.33152330;2023-07-28T02:06:55;20.40;80.00
9544;DHT22;30418;51.45933468;7.33152330;2023-07-28T02:09:24;20.40;80.10
9544;DHT22;30418;51.45933468;7.33152330;2023-07-28T02:11:53;20.30;80.00
9544;DHT22;30418;51.45933468;7.33152330;2023-07-28T02:14:22;20.40;80.10
9544;DHT22;30418;51.45933468;7.33152330;2023-07-28T02:16:50;20.40;80.10
9544;DHT22;30418;51.45933468;7.33152330;2023-07-28T02:19:21;20.40;80.10
9544;DHT22;30418;51.45933468;7.33152330;2023-07-28T02:21:50;20.40;81.00
9544;DHT22;30418;51.45933468;7.33152330;2023-07-28T02:24:18;20.40;80.10
9544;DHT22;30418;51.45933468;7.33152330;2023-07-28T02:26:47;20.40;80.10
9544;DHT22;30418;51.45933468;7.33152330;2023-07-28T02:29:16;20.40;80.20
9544;DHT22;30418;51.45933468;7.33152330;2023-07-28T02:31:45;20.40;80.20
9544;DHT22;30418;51.45933468;7.33152330;2023-07-28T02:34:13;20.40;80.20
9544;DHT22;30418;51.45933468;7.33152330;2023-07-28T02:36:43;20.40;80.20
9544;DHT22;30418;51.45933468;7.33152330;2023-07-28T02:39:12;20.40;80.20
9544;DHT22;30418;51.45933468;7.33152330;2023-07-28T02:41:41;20.40;80.20
9544;DHT22;30418;51.45933468;7.33152330;2023-07-28T02:44:09;20.40;80.20
9544;DHT22;30418;51.45933468;7.33152330;2023-07-28T02:46:38;20.40;80.20
9544;DHT22;30418;51.45933468;7.33152330;2023-07-28T02:49:07;20.40;80.20
9544;DHT22;30418;51.45933468;7.33152330;2023-07-28T02:51:36;20.40;80.20
9544;DHT22;30418;51.45933468;7.33152330;2023-07-28T02:54:06;20.40;80.20
9544;DHT22;30418;51.45933468;7.33152330;2023-07-28T02:56:34;20.40;80.30
9544;DHT22;30418;51.45933468;7.33152330;2023-07-28T02:59:09;20.40;80.30
9544;DHT22;30418;51.45933468;7.33152330;2023-07-28T03:01:38;20.40;80.30
9544;DHT22;30418;51.45933468;7.33152330;2023-07-28T03:04:07;20.40;80.30
9544;DHT22;30418;51.45933468;7.33152330;2023-07-28T03:07:07;20.40;80.30
9544;DHT22;30418;51.45933468;7.33152330;2023-07-28T03:09:40;20.40;80.30
9544;DHT22;30418;51.45933468;7.33152330;2023-07-28T03:12:09;20.40;80.30
9544;DHT22;30418;51.45933468;7.33152330;2023-07-28T03:14:37;20.40;80.30
9544;DHT22;30418;51.45933468;7.33152330;2023-07-28T03:17:06;20.40;80.30
9544;DHT22;30418;51.45933468;7.33152330;2023-07-28T03:19:34;20.40;80.30
9544;DHT22;30418;51.45933468;7.33152330;2023-07-28T03:22:03;20.40;80.30
9544;DHT22;30418;51.45933468;7.33152330;2023-07-28T03:24:32;20.50;80.40
9544;DHT22;30418;51.45933468;7.33152330;2023-07-28T03:27:02;20.40;80.30
9544;DHT22;30418;51.45933468;7.33152330;2023-07-28T03:29:31;20.50;81.40
9544;DHT22;30418;51.45933468;7.33152330;2023-07-28T03:32:00;20.50;80.50
9544;DHT22;30418;51.45933468;7.33152330;2023-07-28T03:34:29;20.40;80.40
9544;DHT22;30418;51.45933468;7.33152330;2023-07-28T03:37:00;20.40;80.40
9544;DHT22;30418;51.45933468;7.33152330;2023-07-28T03:39:28;20.40;80.40
9544;DHT22;30418;51.45933468;7.33152330;2023-07-28T03:41:58;20.40;80.40
9544;DHT22;30418;51.45933468;7.33152330;2023-07-28T03:44:29;20.50;80.50
9544;DHT22;30418;51.45933468;7.33152330;2023-07-28T03:47:00;20.50;80.60
9544;DHT22;30418;51.45933468;7.33152330;2023-07-28T03:49:29;20.40;80.50
9544;DHT22;30418;51.45933468;7.33152330;2023-07-28T03:51:58;20.50;80.60
9544;DHT22;30418;51.45933468;7.33152330;2023-07-28T03:54:26;20.50;80.60
9544;DHT22;30418;51.45933468;7.33152330;2023-07-28T03:56:55;20.40;80.50
9544;DHT22;30418;51.45933468;7.33152330;2023-07-28T03:59:23;20.50;80.60
9544;DHT22;30418;51.45933468;7.33152330;2023-07-28T04:01:53;20.40;80.50
9544;DHT22;30418;51.45933468;7.33152330;2023-07-28T04:04:22;20.40;80.60
9544;DHT22;30418;51.45933468;7.33152330;2023-07-28T04:06:50;20.50;80.60
9544;DHT22;30418;51.45933468;7.33152330;2023-07-28T04:09:20;20.50;80.60
9544;DHT22;30418;51.45933468;7.33152330;2023-07-28T04:11:49;20.50;80.60
9544;DHT22;30418;51.45933468;7.33152330;2023-07-28T04:14:17;20.50;80.70
9544;DHT22;30418;51.45933468;7.33152330;2023-07-28T04:16:46;20.50;80.70
9544;DHT22;30418;51.45933468;7.33152330;2023-07-28T04:19:16;20.50;80.80
9544;DHT22;30418;51.45933468;7.33152330;2023-07-28T04:21:44;20.50;80.80
9544;DHT22;30418;51.45933468;7.33152330;2023-07-28T04:24:13;20.50;80.70
9544;DHT22;30418;51.45933468;7.33152330;2023-07-28T04:26:46;20.50;80.80
9544;DHT22;30418;51.45933468;7.33152330;2023-07-28T04:29:17;20.50;80.80
9544;DHT22;30418;51.45933468;7.33152330;2023-07-28T04:31:46;20.50;80.80
9544;DHT22;30418;51.45933468;7.33152330;2023-07-28T04:34:22;20.50;80.90
9544;DHT22;30418;51.45933468;7.33152330;2023-07-28T04:37:12;20.50;80.90
9544;DHT22;30418;51.45933468;7.33152330;2023-07-28T04:39:49;20.50;80.90
9544;DHT22;30418;51.45933468;7.33152330;2023-07-28T04:42:19;20.50;80.90
9544;DHT22;30418;51.45933468;7.33152330;2023-07-28T04:44:48;20.50;80.90
9544;DHT22;30418;51.45933468;7.33152330;2023-07-28T04:47:18;20.50;80.90
9544;DHT22;30418;51.45933468;7.33152330;2023-07-28T04:49:48;20.60;81.10
9544;DHT22;30418;51.45933468;7.33152330;2023-07-28T04:52:36;20.50;81.00
9544;DHT22;30418;51.45933468;7.33152330;2023-07-28T04:55:28;20.60;81.10
9544;DHT22;30418;51.45933468;7.33152330;2023-07-28T04:57:57;20.60;81.00
9544;DHT22;30418;51.45933468;7.33152330;2023-07-28T05:00:35;20.60;81.10
9544;DHT22;30418;51.45933468;7.33152330;2023-07-28T05:03:03;20.60;81.10
9544;DHT22;30418;51.45933468;7.33152330;2023-07-28T05:05:38;20.60;81.20
9544;DHT22;30418;51.45933468;7.33152330;2023-07-28T05:08:08;20.60;81.30
9544;DHT22;30418;51.45933468;7.33152330;2023-07-28T05:10:36;20.60;81.20
9544;DHT22;30418;51.45933468;7.33152330;2023-07-28T05:13:05;20.60;81.30
9544;DHT22;30418;51.45933468;7.33152330;2023-07-28T05:15:33;20.60;81.30
9544;DHT22;30418;51.45933468;7.33152330;2023-07-28T05:18:04;20.70;81.40
9544;DHT22;30418;51.45933468;7.33152330;2023-07-28T05:20:41;20.70;81.40
9544;DHT22;30418;51.45933468;7.33152330;2023-07-28T05:23:13;20.70;81.40
9544;DHT22;30418;51.45933468;7.33152330;2023-07-28T05:25:42;20.70;81.30
9544;DHT22;30418;51.45933468;7.33152330;2023-07-28T05:28:10;20.70;81.30
9544;DHT22;30418;51.45933468;7.33152330;2023-07-28T05:30:42;20.70;81.30
9544;DHT22;30418;51.45933468;7.33152330;2023-07-28T05:33:11;20.70;81.30
9544;DHT22;30418;51.45933468;7.33152330;2023-07-28T05:35:47;20.70;81.40
9544;DHT22;30418;51.45933468;7.33152330;2023-07-28T05:38:16;20.80;81.70
9544;DHT22;30418;51.45933468;7.33152330;2023-07-28T05:40:44;20.80;81.60
9544;DHT22;30418;51.45933468;7.33152330;2023-07-28T05:43:13;20.80;81.60
9544;DHT22;30418;51.45933468;7.33152330;2023-07-28T05:45:46;20.80;81.70
9544;DHT22;30418;51.45933468;7.33152330;2023-07-28T05:48:16;20.80;81.80
9544;DHT22;30418;51.45933468;7.33152330;2023-07-28T05:50:44;20.80;81.80
9544;DHT22;30418;51.45933468;7.33152330;2023-07-28T05:53:14;20.80;81.80
9544;DHT22;30418;51.45933468;7.33152330;2023-07-28T05:55:43;20.90;82.00
9544;DHT22;30418;51.45933468;7.33152330;2023-07-28T05:58:12;20.90;81.90
9544;DHT22;30418;51.45933468;7.33152330;2023-07-28T06:00:41;20.90;81.90
9544;DHT22;30418;51.45933468;7.33152330;2023-07-28T06:03:22;21.00;82.00
9544;DHT22;30418;51.45933468;7.33152330;2023-07-28T06:06:01;20.90;81.80
9544;DHT22;30418;51.45933468;7.33152330;2023-07-28T06:08:31;21.00;81.80
9544;DHT22;30418;51.45933468;7.33152330;2023-07-28T06:11:00;21.00;81.90
9544;DHT22;30418;51.45933468;7.33152330;2023-07-28T06:13:29;21.00;81.80
9544;DHT22;30418;51.45933468;7.33152330;2023-07-28T06:15:59;21.00;81.70
9544;DHT22;30418;51.45933468;7.33152330;2023-07-28T06:18:29;21.00;81.70
9544;DHT22;30418;51.45933468;7.33152330;2023-07-28T06:21:07;21.00;81.80
9544;DHT22;30418;51.45933468;7.33152330;2023-07-28T06:23:38;21.00;81.80
9544;DHT22;30418;51.45933468;7.33152330;2023-07-28T06:26:07;21.00;81.80
9544;DHT22;30418;51.45933468;7.33152330;2023-07-28T06:28:36;21.00;81.70
9544;DHT22;30418;51.45933468;7.33152330;2023-07-28T06:31:05;21.00;81.70
9544;DHT22;30418;51.45933468;7.33152330;2023-07-28T06:33:34;21.00;81.80
9544;DHT22;30418;51.45933468;7.33152330;2023-07-28T06:36:04;21.00;81.90
9544;DHT22;30418;51.45933468;7.33152330;2023-07-28T06:38:34;21.00;81.90
9544;DHT22;30418;51.45933468;7.33152330;2023-07-28T06:41:04;21.00;82.70
9544;DHT22;30418;51.45933468;7.33152330;2023-07-28T06:43:32;21.00;81.90
9544;DHT22;30418;51.45933468;7.33152330;2023-07-28T06:46:01;21.00;82.00
9544;DHT22;30418;51.45933468;7.33152330;2023-07-28T06:48:30;21.00;82.00
9544;DHT22;30418;51.45933468;7.33152330;2023-07-28T06:50:58;21.00;82.00
9544;DHT22;30418;51.45933468;7.33152330;2023-07-28T06:53:27;21.00;82.00
9544;DHT22;30418;51.45933468;7.33152330;2023-07-28T06:55:56;21.00;82.10
9544;DHT22;30418;51.45933468;7.33152330;2023-07-28T06:58:26;21.00;82.10
9544;DHT22;30418;51.45933468;7.33152330;2023-07-28T07:00:54;21.10;82.40
9544;DHT22;30418;51.45933468;7.33152330;2023-07-28T07:03:25;21.10;82.30
9544;DHT22;30418;51.45933468;7.33152330;2023-07-28T07:05:54;21.10;82.30
9544;DHT22;30418;51.45933468;7.33152330;2023-07-28T07:08:23;21.10;82.20
9544;DHT22;30418;51.45933468;7.33152330;2023-07-28T07:10:53;21.10;82.20
9544;DHT22;30418;51.45933468;7.33152330;2023-07-28T07:13:22;21.10;82.20
9544;DHT22;30418;51.45933468;7.33152330;2023-07-28T07:15:52;21.10;82.30
9544;DHT22;30418;51.45933468;7.33152330;2023-07-28T07:18:21;21.20;82.50
9544;DHT22;30418;51.45933468;7.33152330;2023-07-28T07:20:49;21.20;82.50
9544;DHT22;30418;51.45933468;7.33152330;2023-07-28T07:23:18;21.20;82.50
9544;DHT22;30418;51.45933468;7.33152330;2023-07-28T07:25:49;21.20;82.50
9544;DHT22;30418;51.45933468;7.33152330;2023-07-28T07:28:18;21.20;82.60
9544;DHT22;30418;51.45933468;7.33152330;2023-07-28T07:30:46;21.20;82.50
9544;DHT22;30418;51.45933468;7.33152330;2023-07-28T07:33:17;21.20;82.40
9544;DHT22;30418;51.45933468;7.33152330;2023-07-28T07:35:46;21.20;82.50
9544;DHT22;30418;51.45933468;7.33152330;2023-07-28T07:38:15;21.20;82.40
9544;DHT22;30418;51.45933468;7.33152330;2023-07-28T07:40:43;21.30;82.50
9544;DHT22;30418;51.45933468;7.33152330;2023-07-28T07:43:14;21.30;82.50
9544;DHT22;30418;51.45933468;7.33152330;2023-07-28T07:45:47;21.30;82.50
9544;DHT22;30418;51.45933468;7.33152330;2023-07-28T07:48:19;21.30;82.50
9544;DHT22;30418;51.45933468;7.33152330;2023-07-28T07:50:48;21.30;82.60
9544;DHT22;30418;51.45933468;7.33152330;2023-07-28T07:53:16;21.30;82.50
9544;DHT22;30418;51.45933468;7.33152330;2023-07-28T07:55:45;21.30;82.50
9544;DHT22;30418;51.45933468;7.33152330;2023-07-28T07:58:13;21.30;82.70
9544;DHT22;30418;51.45933468;7.33152330;2023-07-28T08:00:42;21.30;82.80
9544;DHT22;30418;51.45933468;7.33152330;2023-07-28T08:03:11;21.40;82.90
9544;DHT22;30418;51.45933468;7.33152330;2023-07-28T08:05:41;21.40;82.90
9544;DHT22;30418;51.45933468;7.33152330;2023-07-28T08:08:10;21.40;83.00
9544;DHT22;30418;51.45933468;7.33152330;2023-07-28T08:10:39;21.40;82.90
9544;DHT22;30418;51.45933468;7.33152330;2023-07-28T08:13:08;21.50;83.00
9544;DHT22;30418;51.45933468;7.33152330;2023-07-28T08:15:36;21.50;83.00
9544;DHT22;30418;51.45933468;7.33152330;2023-07-28T08:18:05;21.50;83.00
9544;DHT22;30418;51.45933468;7.33152330;2023-07-28T08:20:34;21.50;82.90
9544;DHT22;30418;51.45933468;7.33152330;2023-07-28T08:23:04;21.50;83.00
9544;DHT22;30418;51.45933468;7.33152330;2023-07-28T08:25:33;21.60;84.00
9544;DHT22;30418;51.45933468;7.33152330;2023-07-28T08:28:02;21.50;83.10
9544;DHT22;30418;51.45933468;7.33152330;2023-07-28T08:30:32;21.60;83.30
9544;DHT22;30418;51.45933468;7.33152330;2023-07-28T08:33:01;21.60;83.40
9544;DHT22;30418;51.45933468;7.33152330;2023-07-28T08:35:30;21.60;83.50
9544;DHT22;30418;51.45933468;7.33152330;2023-07-28T08:37:59;21.70;83.70
9544;DHT22;30418;51.45933468;7.33152330;2023-07-28T08:40:29;21.70;83.60
9544;DHT22;30418;51.45933468;7.33152330;2023-07-28T08:42:57;21.70;83.70
9544;DHT22;30418;51.45933468;7.33152330;2023-07-28T08:45:26;21.80;83.60
9544;DHT22;30418;51.45933468;7.33152330;2023-07-28T08:47:55;21.80;83.50
9544;DHT22;30418;51.45933468;7.33152330;2023-07-28T08:50:23;21.80;83.40
9544;DHT22;30418;51.45933468;7.33152330;2023-07-28T08:52:52;21.80;83.30
9544;DHT22;30418;51.45933468;7.33152330;2023-07-28T08:55:21;21.90;83.30
9544;DHT22;30418;51.45933468;7.33152330;2023-07-28T08:57:51;21.90;83.10
9544;DHT22;30418;51.45933468;7.33152330;2023-07-28T09:00:23;21.90;83.10
9544;DHT22;30418;51.45933468;7.33152330;2023-07-28T09:02:52;21.90;83.10
9544;DHT22;30418;51.45933468;7.33152330;2023-07-28T09:05:21;21.90;82.90
9544;DHT22;30418;51.45933468;7.33152330;2023-07-28T09:07:51;21.90;82.90
9544;DHT22;30418;51.45933468;7.33152330;2023-07-28T09:10:20;22.00;83.00
9544;DHT22;30418;51.45933468;7.33152330;2023-07-28T09:12:50;22.00;83.00
9544;DHT22;30418;51.45933468;7.33152330;2023-07-28T09:15:19;22.00;83.00
9544;DHT22;30418;51.45933468;7.33152330;2023-07-28T09:17:48;22.00;83.00
9544;DHT22;30418;51.45933468;7.33152330;2023-07-28T09:20:17;22.00;82.80
9544;DHT22;30418;51.45933468;7.33152330;2023-07-28T09:22:45;22.00;82.70
9544;DHT22;30418;51.45933468;7.33152330;2023-07-28T09:25:16;22.00;82.70
9544;DHT22;30418;51.45933468;7.33152330;2023-07-28T09:27:52;22.10;82.90
9544;DHT22;30418;51.45933468;7.33152330;2023-07-28T09:30:25;22.10;83.00
9544;DHT22;30418;51.45933468;7.33152330;2023-07-28T09:32:55;22.10;83.10
9544;DHT22;30418;51.45933468;7.33152330;2023-07-28T09:35:24;22.10;83.30
9544;DHT22;30418;51.45933468;7.33152330;2023-07-28T09:37:52;22.10;83.30
9544;DHT22;30418;51.45933468;7.33152330;2023-07-28T09:40:23;22.20;83.30
9544;DHT22;30418;51.45933468;7.33152330;2023-07-28T09:42:53;22.20;83.30
9544;DHT22;30418;51.45933468;7.33152330;2023-07-28T09:45:23;22.20;83.20
9544;DHT22;30418;51.45933468;7.33152330;2023-07-28T09:48:06;22.20;83.20
9544;DHT22;30418;51.45933468;7.33152330;2023-07-28T09:50:37;22.20;83.30
9544;DHT22;30418;51.45933468;7.33152330;2023-07-28T09:53:08;22.30;83.50
9544;DHT22;30418;51.45933468;7.33152330;2023-07-28T09:55:39;22.30;83.50
9544;DHT22;30418;51.45933468;7.33152330;2023-07-28T09:58:12;22.30;83.50
9544;DHT22;30418;51.45933468;7.33152330;2023-07-28T10:00:44;22.30;83.60
9544;DHT22;30418;51.45933468;7.33152330;2023-07-28T10:03:14;22.40;83.60
9544;DHT22;30418;51.45933468;7.33152330;2023-07-28T10:05:44;22.40;83.50
9544;DHT22;30418;51.45933468;7.33152330;2023-07-28T10:08:13;22.40;83.60
9544;DHT22;30418;51.45933468;7.33152330;2023-07-28T10:10:42;22.40;83.60
9544;DHT22;30418;51.45933468;7.33152330;2023-07-28T10:13:21;22.40;83.80
9544;DHT22;30418;51.45933468;7.33152330;2023-07-28T10:15:50;22.50;84.70
9544;DHT22;30418;51.45933468;7.33152330;2023-07-28T10:18:20;22.50;84.70
9544;DHT22;30418;51.45933468;7.33152330;2023-07-28T10:20:49;22.60;84.80
9544;DHT22;30418;51.45933468;7.33152330;2023-07-28T10:23:21;22.70;84.60
9544;DHT22;30418;51.45933468;7.33152330;2023-07-28T10:25:57;22.80;84.60
9544;DHT22;30418;51.45933468;7.33152330;2023-07-28T10:28:30;22.90;84.40
9544;DHT22;30418;51.45933468;7.33152330;2023-07-28T10:31:01;22.90;84.20
9544;DHT22;30418;51.45933468;7.33152330;2023-07-28T10:33:31;22.90;83.70
9544;DHT22;30418;51.45933468;7.33152330;2023-07-28T10:36:14;23.00;83.40
9544;DHT22;30418;51.45933468;7.33152330;2023-07-28T10:38:44;23.00;83.30
9544;DHT22;30418;51.45933468;7.33152330;2023-07-28T10:41:14;23.00;83.30
9544;DHT22;30418;51.45933468;7.33152330;2023-07-28T10:43:45;23.00;83.10
9544;DHT22;30418;51.45933468;7.33152330;2023-07-28T10:46:16;23.00;83.10
9544;DHT22;30418;51.45933468;7.33152330;2023-07-28T10:48:47;23.00;83.00
9544;DHT22;30418;51.45933468;7.33152330;2023-07-28T10:51:20;23.00;82.90
9544;DHT22;30418;51.45933468;7.33152330;2023-07-28T10:53:55;23.00;82.70
9544;DHT22;30418;51.45933468;7.33152330;2023-07-28T10:56:25;23.00;82.70
9544;DHT22;30418;51.45933468;7.33152330;2023-07-28T10:58:59;23.10;83.00
9544;DHT22;30418;51.45933468;7.33152330;2023-07-28T11:01:32;23.10;82.80
9544;DHT22;30418;51.45933468;7.33152330;2023-07-28T11:04:13;23.10;82.90
9544;DHT22;30418;51.45933468;7.33152330;2023-07-28T11:06:43;23.10;82.80
9544;DHT22;30418;51.45933468;7.33152330;2023-07-28T11:09:16;23.20;82.90
9544;DHT22;30418;51.45933468;7.33152330;2023-07-28T11:11:46;23.20;82.70
9544;DHT22;30418;51.45933468;7.33152330;2023-07-28T11:14:16;23.30;82.60
9544;DHT22;30418;51.45933468;7.33152330;2023-07-28T11:16:46;23.30;82.80
9544;DHT22;30418;51.45933468;7.33152330;2023-07-28T11:19:16;23.30;82.90
9544;DHT22;30418;51.45933468;7.33152330;2023-07-28T11:21:52;23.40;83.10
9544;DHT22;30418;51.45933468;7.33152330;2023-07-28T11:24:22;23.50;82.80
9544;DHT22;30418;51.45933468;7.33152330;2023-07-28T11:26:51;23.50;82.70
9544;DHT22;30418;51.45933468;7.33152330;2023-07-28T11:29:21;23.50;82.30
9544;DHT22;30418;51.45933468;7.33152330;2023-07-28T11:31:51;23.60;82.20
9544;DHT22;30418;51.45933468;7.33152330;2023-07-28T11:34:20;23.60;82.20
9544;DHT22;30418;51.45933468;7.33152330;2023-07-28T11:36:49;23.60;82.10
9544;DHT22;30418;51.45933468;7.33152330;2023-07-28T11:39:18;23.70;82.10
9544;DHT22;30418;51.45933468;7.33152330;2023-07-28T11:41:49;23.70;82.20
9544;DHT22;30418;51.45933468;7.33152330;2023-07-28T11:44:23;23.70;82.20
9544;DHT22;30418;51.45933468;7.33152330;2023-07-28T11:46:52;23.80;82.80
9544;DHT22;30418;51.45933468;7.33152330;2023-07-28T11:49:22;23.80;81.90
9544;DHT22;30418;51.45933468;7.33152330;2023-07-28T11:51:52;23.80;81.80
9544;DHT22;30418;51.45933468;7.33152330;2023-07-28T11:54:24;23.90;81.70
9544;DHT22;30418;51.45933468;7.33152330;2023-07-28T11:56:55;23.90;82.30
9544;DHT22;30418;51.45933468;7.33152330;2023-07-28T11:59:27;23.90;81.20
9544;DHT22;30418;51.45933468;7.33152330;2023-07-28T12:01:56;23.90;80.70
9544;DHT22;30418;51.45933468;7.33152330;2023-07-28T12:04:30;24.00;80.80
9544;DHT22;30418;51.45933468;7.33152330;2023-07-28T12:07:05;24.00;80.30
9544;DHT22;30418;51.45933468;7.33152330;2023-07-28T12:09:51;23.90;80.20
9544;DHT22;30418;51.45933468;7.33152330;2023-07-28T12:12:24;23.90;79.80
9544;DHT22;30418;51.45933468;7.33152330;2023-07-28T12:14:56;23.90;80.00
9544;DHT22;30418;51.45933468;7.33152330;2023-07-28T12:17:32;23.90;79.80
9544;DHT22;30418;51.45933468;7.33152330;2023-07-28T12:20:05;23.90;79.80
9544;DHT22;30418;51.45933468;7.33152330;2023-07-28T12:22:39;23.90;79.60
9544;DHT22;30418;51.45933468;7.33152330;2023-07-28T12:25:07;23.80;79.50
9544;DHT22;30418;51.45933468;7.33152330;2023-07-28T12:27:37;23.80;79.50
9544;DHT22;30418;51.45933468;7.33152330;2023-07-28T12:30:08;23.80;79.40
9544;DHT22;30418;51.45933468;7.33152330;2023-07-28T12:32:40;23.80;79.40
9544;DHT22;30418;51.45933468;7.33152330;2023-07-28T12:35:29;23.80;79.30
9544;DHT22;30418;51.45933468;7.33152330;2023-07-28T12:38:02;23.70;79.20
9544;DHT22;30418;51.45933468;7.33152330;2023-07-28T12:40:51;23.70;79.20
9544;DHT22;30418;51.45933468;7.33152330;2023-07-28T12:43:24;23.70;79.40
9544;DHT22;30418;51.45933468;7.33152330;2023-07-28T12:45:57;23.70;79.60
9544;DHT22;30418;51.45933468;7.33152330;2023-07-28T12:48:29;23.70;79.70
9544;DHT22;30418;51.45933468;7.33152330;2023-07-28T12:50:58;23.70;79.90
9544;DHT22;30418;51.45933468;7.33152330;2023-07-28T12:53:30;23.80;80.50
9544;DHT22;30418;51.45933468;7.33152330;2023-07-28T12:55:59;23.80;80.50
9544;DHT22;30418;51.45933468;7.33152330;2023-07-28T12:58:28;23.90;80.30
9544;DHT22;30418;51.45933468;7.33152330;2023-07-28T13:01:02;24.00;80.30
9544;DHT22;30418;51.45933468;7.33152330;2023-07-28T13:03:31;24.10;80.20
9544;DHT22;30418;51.45933468;7.33152330;2023-07-28T13:06:00;24.10;80.00
9544;DHT22;30418;51.45933468;7.33152330;2023-07-28T13:08:29;24.20;79.80
9544;DHT22;30418;51.45933468;7.33152330;2023-07-28T13:11:01;24.30;80.00
9544;DHT22;30418;51.45933468;7.33152330;2023-07-28T13:13:32;24.30;80.10
9544;DHT22;30418;51.45933468;7.33152330;2023-07-28T13:16:03;24.40;79.80
9544;DHT22;30418;51.45933468;7.33152330;2023-07-28T13:18:34;24.50;79.50
9544;DHT22;30418;51.45933468;7.33152330;2023-07-28T13:21:03;24.60;79.60
9544;DHT22;30418;51.45933468;7.33152330;2023-07-28T13:23:33;24.60;79.40
9544;DHT22;30418;51.45933468;7.33152330;2023-07-28T13:26:01;24.70;79.10
9544;DHT22;30418;51.45933468;7.33152330;2023-07-28T13:28:31;24.80;78.80
9544;DHT22;30418;51.45933468;7.33152330;2023-07-28T13:31:03;24.80;79.20
9544;DHT22;30418;51.45933468;7.33152330;2023-07-28T13:33:32;24.80;77.90
9544;DHT22;30418;51.45933468;7.33152330;2023-07-28T13:36:00;24.90;78.00
9544;DHT22;30418;51.45933468;7.33152330;2023-07-28T13:38:31;24.90;78.00
9544;DHT22;30418;51.45933468;7.33152330;2023-07-28T13:40:59;24.90;77.90
9544;DHT22;30418;51.45933468;7.33152330;2023-07-28T13:43:28;24.90;77.90
9544;DHT22;30418;51.45933468;7.33152330;2023-07-28T13:45:56;24.90;78.00
9544;DHT22;30418;51.45933468;7.33152330;2023-07-28T13:48:27;25.00;78.00
9544;DHT22;30418;51.45933468;7.33152330;2023-07-28T13:50:55;25.00;77.60
9544;DHT22;30418;51.45933468;7.33152330;2023-07-28T13:53:24;25.00;77.50